createdAt,value
2023-03-26T00:02:14.578Z,21.05
2023-03-26T00:06:14.511Z,21.05
2023-03-26T00:10:14.485Z,21.05
2023-03-26T00:14:14.429Z,21.05
2023-03-26T00:18:14.413Z,21.08
2023-03-26T00:22:14.390Z,21.12
2023-03-26T00:26:14.366Z,21.17
2023-03-26T00:30:14.305Z,21.17
2023-03-26T00:34:14.284Z,21.21
2023-03-26T00:38:14.268Z,21.22
2023-03-26T00:42:14.308Z,21.22
2023-03-26T00:46:14.399Z,21.28
2023-03-26T00:50:14.404Z,21.27
2023-03-26T00:54:14.369Z,21.28
2023-03-26T00:58:14.355Z,21.26
2023-03-26T01:02:14.312Z,21.27
2023-03-26T01:06:14.274Z,21.31
2023-03-26T01:10:14.213Z,21.33
2023-03-26T01:14:14.185Z,21.33
2023-03-26T01:18:14.166Z,21.32
2023-03-26T01:22:14.114Z,21.33
2023-03-26T01:26:14.057Z,21.37
2023-03-26T01:30:14.011Z,21.38
2023-03-26T01:34:14.008Z,21.37
2023-03-26T01:38:13.960Z,21.40
2023-03-26T01:42:13.919Z,21.44
2023-03-26T01:46:13.926Z,21.45
2023-03-26T01:50:13.829Z,21.50
2023-03-26T01:54:13.779Z,21.47
2023-03-26T01:58:13.736Z,21.48
2023-03-26T02:02:13.800Z,21.48
2023-03-26T02:06:13.836Z,21.49
2023-03-26T02:10:13.870Z,21.45
2023-03-26T02:14:13.933Z,21.47
2023-03-26T02:18:13.893Z,21.48
2023-03-26T02:22:13.869Z,21.45
2023-03-26T02:26:13.811Z,21.44
2023-03-26T02:30:13.761Z,21.46
2023-03-26T02:34:13.757Z,21.45
2023-03-26T02:38:13.688Z,21.44
2023-03-26T02:42:13.649Z,21.41
2023-03-26T02:46:13.694Z,21.45
2023-03-26T02:50:13.578Z,21.41
2023-03-26T02:54:13.543Z,21.42
2023-03-26T02:58:13.501Z,21.43
2023-03-26T03:02:13.538Z,21.36
2023-03-26T03:06:13.447Z,21.43
2023-03-26T03:10:13.370Z,21.38
2023-03-26T03:14:13.349Z,21.37
2023-03-26T03:18:13.318Z,21.35
2023-03-26T03:22:13.273Z,21.38
2023-03-26T03:26:13.232Z,21.40
2023-03-26T03:30:13.250Z,21.41
2023-03-26T03:34:13.266Z,21.38
2023-03-26T03:38:13.317Z,21.39
2023-03-26T03:42:13.269Z,21.39
2023-03-26T03:46:13.281Z,21.38
2023-03-26T03:50:13.227Z,21.36
2023-03-26T03:54:13.181Z,21.35
2023-03-26T03:58:13.119Z,21.43
2023-03-26T04:02:13.108Z,21.37
2023-03-26T04:06:13.059Z,21.40
2023-03-26T04:10:13.018Z,21.41
2023-03-26T04:14:12.990Z,21.41
2023-03-26T04:18:12.921Z,21.42
2023-03-26T04:22:12.888Z,21.46
2023-03-26T04:26:12.870Z,21.41
2023-03-26T04:30:12.826Z,21.41
2023-03-26T04:34:12.791Z,21.45
2023-03-26T04:38:12.810Z,21.43
2023-03-26T04:42:12.814Z,21.41
2023-03-26T04:46:12.872Z,21.44
2023-03-26T04:50:12.917Z,21.41
2023-03-26T04:54:13.008Z,21.43
2023-03-26T04:58:12.953Z,21.40
2023-03-26T05:02:13.057Z,21.41
2023-03-26T05:06:13.063Z,21.39
2023-03-26T05:10:13.125Z,21.35
2023-03-26T05:14:13.147Z,21.36
2023-03-26T05:18:13.181Z,21.37
2023-03-26T05:22:13.241Z,21.30
2023-03-26T05:26:13.335Z,21.33
2023-03-26T05:30:13.389Z,21.28
2023-03-26T05:34:13.445Z,21.27
2023-03-26T05:38:13.479Z,21.25
2023-03-26T05:42:13.484Z,21.27
2023-03-26T05:46:13.545Z,21.19
2023-03-26T05:50:13.685Z,21.16
2023-03-26T05:54:13.685Z,21.12
2023-03-26T05:58:13.686Z,21.16
2023-03-26T06:02:13.741Z,21.08
2023-03-26T06:06:13.709Z,21.09
2023-03-26T06:10:18.140Z,21.06
2023-03-26T06:14:14.616Z,21.03
2023-03-26T06:18:13.706Z,20.99
2023-03-26T06:22:13.599Z,20.96
2023-03-26T06:26:13.660Z,20.96
2023-03-26T06:30:13.661Z,20.95
2023-03-26T06:34:13.721Z,20.89
2023-03-26T06:38:13.681Z,20.88
2023-03-26T06:42:13.709Z,20.91
2023-03-26T06:46:13.757Z,20.88
2023-03-26T06:50:13.737Z,20.86
2023-03-26T06:54:13.683Z,20.82
2023-03-26T06:58:13.654Z,20.84
2023-03-26T07:02:13.617Z,20.88
2023-03-26T07:06:13.589Z,20.84
2023-03-26T07:10:13.578Z,20.87
2023-03-26T07:14:13.499Z,20.63
2023-03-26T07:18:13.464Z,20.44
2023-03-26T07:22:13.423Z,20.48
2023-03-26T07:26:13.394Z,20.48
2023-03-26T07:30:13.357Z,20.51
2023-03-26T07:34:13.314Z,20.54
2023-03-26T07:38:13.274Z,20.57
2023-03-26T07:42:13.455Z,20.64
2023-03-26T07:46:13.627Z,20.61
2023-03-26T07:50:13.757Z,20.56
2023-03-26T07:54:13.916Z,20.56
2023-03-26T07:58:14.018Z,20.52
2023-03-26T08:02:14.144Z,20.47
2023-03-26T08:06:14.293Z,20.45
2023-03-26T08:10:14.397Z,20.49
2023-03-26T08:14:14.510Z,20.47
2023-03-26T08:18:14.616Z,20.48
2023-03-26T08:22:14.708Z,20.45
2023-03-26T08:26:14.800Z,20.41
2023-03-26T08:30:14.882Z,20.32
2023-03-26T08:34:14.883Z,20.24
2023-03-26T08:38:14.891Z,20.16
2023-03-26T08:42:14.884Z,20.12
2023-03-26T08:46:14.961Z,20.15
2023-03-26T08:50:14.937Z,20.11
2023-03-26T08:54:14.922Z,20.10
2023-03-26T08:58:14.895Z,20.12
2023-03-26T09:02:14.923Z,20.18
2023-03-26T09:06:14.949Z,20.23
2023-03-26T09:10:15.062Z,20.29
2023-03-26T09:14:15.053Z,20.32
2023-03-26T09:18:15.090Z,20.35
2023-03-26T09:22:15.165Z,20.41
2023-03-26T09:26:15.218Z,20.43
2023-03-26T09:30:15.298Z,20.44
2023-03-26T09:34:15.372Z,20.42
2023-03-26T09:38:15.448Z,20.42
2023-03-26T09:42:15.523Z,20.43
2023-03-26T09:46:15.605Z,20.37
2023-03-26T09:50:15.647Z,20.32
2023-03-26T09:54:15.644Z,20.30
2023-03-26T09:58:15.661Z,20.31
2023-03-26T10:02:15.698Z,20.34
2023-03-26T10:06:15.737Z,20.30
2023-03-26T10:10:15.777Z,20.32
2023-03-26T10:14:15.867Z,20.35
2023-03-26T10:18:27.090Z,20.34
2023-03-26T10:22:16.826Z,20.38
2023-03-26T10:26:15.816Z,20.40
2023-03-26T10:30:15.808Z,20.37
2023-03-26T10:34:19.408Z,20.45
2023-03-26T10:38:16.679Z,20.47
2023-03-26T10:42:15.674Z,20.45
2023-03-26T10:46:15.674Z,20.48
2023-03-26T10:50:22.671Z,20.53
2023-03-26T10:54:16.533Z,20.54
2023-03-26T10:58:15.477Z,20.55
2023-03-26T11:02:15.442Z,20.55
2023-03-26T11:06:15.402Z,20.53
2023-03-26T11:10:15.455Z,20.53
2023-03-26T11:14:24.433Z,20.52
2023-03-26T11:18:16.535Z,20.51
2023-03-26T11:22:15.443Z,20.50
2023-03-26T11:26:15.419Z,20.50
2023-03-26T11:30:15.360Z,20.53
2023-03-26T11:34:15.339Z,20.51
2023-03-26T11:38:15.406Z,20.54
2023-03-26T11:42:15.460Z,20.54
2023-03-26T11:46:15.534Z,20.58
2023-03-26T11:50:15.562Z,20.60
2023-03-26T11:54:15.633Z,20.63
2023-03-26T11:58:15.680Z,20.66
2023-03-26T12:02:15.795Z,20.69
2023-03-26T12:06:15.825Z,20.75
2023-03-26T12:10:18.447Z,20.80
2023-03-26T12:14:15.892Z,20.82
2023-03-26T12:18:15.932Z,20.82
2023-03-26T12:22:15.792Z,20.89
2023-03-26T12:26:15.750Z,20.86
2023-03-26T12:30:15.709Z,20.85
2023-03-26T12:34:15.675Z,20.89
2023-03-26T12:38:15.664Z,20.92
2023-03-26T12:43:40.420Z,20.92
2023-03-26T12:47:55.116Z,21.01
2023-03-26T12:50:16.518Z,21.09
2023-03-26T12:54:15.456Z,21.18
2023-03-26T12:58:15.480Z,21.23
2023-03-26T13:02:15.411Z,21.34
2023-03-26T13:06:15.359Z,21.39
2023-03-26T13:10:15.329Z,21.49
2023-03-26T13:14:15.301Z,21.56
2023-03-26T13:18:15.414Z,21.61
2023-03-26T13:22:15.592Z,21.71
2023-03-26T13:26:15.780Z,21.78
2023-03-26T13:30:15.992Z,21.86
2023-03-26T13:34:16.209Z,21.89
2023-03-26T13:38:16.408Z,21.88
2023-03-26T13:42:16.596Z,21.92
2023-03-26T13:46:16.842Z,21.95
2023-03-26T13:50:17.039Z,22.01
2023-03-26T13:54:17.241Z,22.05
2023-03-26T13:58:17.442Z,22.05
2023-03-26T14:02:17.642Z,22.10
2023-03-26T14:06:17.852Z,22.13
2023-03-26T14:10:18.072Z,22.15
2023-03-26T14:14:18.280Z,22.19
2023-03-26T14:18:18.572Z,22.21
2023-03-26T14:22:18.736Z,22.24
2023-03-26T14:26:18.948Z,22.25
2023-03-26T14:30:18.922Z,22.30
2023-03-26T14:34:18.875Z,22.34
2023-03-26T14:38:18.839Z,22.41
2023-03-26T14:42:18.786Z,22.45
2023-03-26T14:46:18.822Z,22.50
2023-03-26T14:50:18.717Z,22.54
2023-03-26T14:54:18.673Z,22.66
2023-03-26T14:58:18.652Z,22.70
2023-03-26T15:02:18.709Z,22.73
2023-03-26T15:06:18.681Z,22.82
2023-03-26T15:10:18.659Z,22.87
2023-03-26T15:14:18.614Z,22.95
2023-03-26T15:18:18.575Z,23.06
2023-03-26T15:22:18.520Z,23.07
2023-03-26T15:26:18.504Z,23.11
2023-03-26T15:30:18.441Z,23.16
2023-03-26T15:34:18.440Z,23.20
2023-03-26T15:38:18.381Z,23.18
2023-03-26T15:42:18.345Z,23.25
2023-03-26T15:46:18.410Z,23.27
2023-03-26T15:50:18.567Z,23.33
2023-03-26T15:54:18.514Z,23.39
2023-03-26T15:58:18.490Z,23.39
2023-03-26T16:02:18.460Z,23.44
2023-03-26T16:06:18.420Z,23.49
2023-03-26T16:10:18.368Z,23.56
2023-03-26T16:14:18.360Z,23.56
2023-03-26T16:18:18.310Z,23.62
2023-03-26T16:22:18.259Z,23.64
2023-03-26T16:26:18.214Z,23.66
2023-03-26T16:30:20.653Z,23.74
2023-03-26T16:34:18.146Z,23.80
2023-03-26T16:38:18.109Z,23.84
2023-03-26T16:42:18.218Z,23.91
2023-03-26T16:46:18.115Z,23.97
2023-03-26T16:50:18.017Z,24.06
2023-03-26T16:54:17.979Z,24.09
2023-03-26T16:58:17.955Z,24.07
2023-03-26T17:02:17.893Z,24.12
2023-03-26T17:06:17.856Z,24.14
2023-03-26T17:10:17.827Z,24.13
2023-03-26T17:14:17.773Z,24.17
2023-03-26T17:18:17.849Z,24.16
2023-03-26T17:22:17.716Z,24.17
2023-03-26T17:26:17.707Z,24.25
2023-03-26T17:30:17.642Z,24.23
2023-03-26T17:34:17.630Z,24.23
2023-03-26T17:38:17.612Z,24.29
2023-03-26T17:42:17.547Z,24.27
2023-03-26T17:46:17.589Z,24.32
2023-03-26T17:50:17.471Z,24.38
2023-03-26T17:54:17.429Z,24.37
2023-03-26T17:58:17.415Z,24.42
2023-03-26T18:02:17.390Z,24.44
2023-03-26T18:06:17.348Z,24.50
2023-03-26T18:10:17.289Z,24.49
2023-03-26T18:14:17.244Z,24.47
2023-03-26T18:18:17.193Z,24.48
2023-03-26T18:22:17.185Z,24.49
2023-03-26T18:26:17.125Z,24.50
2023-03-26T18:30:17.097Z,24.52
2023-03-26T18:34:17.035Z,24.55
2023-03-26T18:38:17.060Z,24.53
2023-03-26T18:42:22.388Z,24.51
2023-03-26T18:46:18.010Z,24.54
2023-03-26T18:50:16.965Z,24.53
2023-03-26T18:54:16.961Z,24.57
2023-03-26T18:58:16.986Z,24.55
2023-03-26T19:02:17.026Z,24.58
2023-03-26T19:06:16.919Z,24.57
2023-03-26T19:10:16.881Z,24.59
2023-03-26T19:14:17.163Z,24.54
2023-03-26T19:18:16.799Z,24.54
2023-03-26T19:22:16.753Z,24.51
2023-03-26T19:26:16.730Z,24.52
2023-03-26T19:30:16.660Z,24.55
2023-03-26T19:34:16.676Z,24.50
2023-03-26T19:38:16.587Z,24.53
2023-03-26T19:42:16.542Z,24.52
2023-03-26T19:46:16.524Z,24.53
2023-03-26T19:50:16.500Z,24.50
2023-03-26T19:54:16.467Z,24.48
2023-03-26T19:58:16.420Z,24.44
2023-03-26T20:02:16.428Z,24.44
2023-03-26T20:06:16.354Z,24.41
2023-03-26T20:10:16.324Z,24.36
2023-03-26T20:14:16.354Z,24.36
2023-03-26T20:18:16.307Z,24.30
2023-03-26T20:22:16.321Z,24.28
2023-03-26T20:26:16.336Z,24.22
2023-03-26T20:30:19.218Z,24.17
2023-03-26T20:34:17.369Z,24.14
2023-03-26T20:38:17.072Z,24.11
2023-03-26T20:42:16.270Z,24.07
2023-03-26T20:46:16.245Z,24.00
2023-03-26T20:50:16.135Z,23.98
2023-03-26T20:54:16.110Z,23.93
2023-03-26T20:58:16.072Z,23.85
2023-03-26T21:02:16.058Z,23.83
2023-03-26T21:06:16.000Z,23.77
2023-03-26T21:10:15.965Z,23.71
2023-03-26T21:14:15.905Z,23.71
2023-03-26T21:18:15.884Z,23.66
2023-03-26T21:22:15.842Z,23.60
2023-03-26T21:26:15.797Z,23.56
2023-03-26T21:30:15.781Z,23.50
2023-03-26T21:34:15.726Z,23.47
2023-03-26T21:38:15.682Z,23.40
2023-03-26T21:42:15.640Z,23.39
2023-03-26T21:46:15.682Z,23.34
2023-03-26T21:50:15.592Z,23.32
2023-03-26T21:54:15.537Z,23.29
2023-03-26T21:58:15.491Z,23.24
2023-03-26T22:02:15.441Z,23.21
2023-03-26T22:06:15.414Z,23.20
2023-03-26T22:10:15.468Z,23.19
2023-03-26T22:14:15.482Z,23.11
2023-03-26T22:18:15.553Z,23.09
2023-03-26T22:22:15.635Z,23.00
2023-03-26T22:26:15.693Z,23.01
2023-03-26T22:30:15.740Z,22.97
2023-03-26T22:34:15.808Z,22.94
2023-03-26T22:38:15.838Z,22.88
2023-03-26T22:42:15.945Z,22.86
2023-03-26T22:46:16.174Z,22.81
2023-03-26T22:50:16.156Z,22.78
2023-03-26T22:54:16.166Z,22.75
2023-03-26T22:58:16.180Z,22.74
2023-03-26T23:02:16.152Z,22.70
2023-03-26T23:06:16.136Z,22.66
2023-03-26T23:10:16.083Z,22.66
2023-03-26T23:14:16.077Z,22.60
2023-03-26T23:18:16.008Z,22.61
2023-03-26T23:22:15.952Z,22.61
2023-03-26T23:26:15.928Z,22.55
2023-03-26T23:30:15.894Z,22.52
2023-03-26T23:34:15.890Z,22.49
2023-03-26T23:38:15.827Z,22.47
2023-03-26T23:42:15.776Z,22.46
2023-03-26T23:46:16.781Z,22.45
2023-03-26T23:50:15.713Z,22.42
2023-03-26T23:54:15.721Z,22.38
2023-03-26T23:58:15.688Z,22.36
